This is the latest recevied weather packets stored in our database for station/object N1HRK. If no packets are shown the sender has not sent any weather packets the latest 1 day(s).
| Time | Temp. | Humidity | Pressure | Rain* | Wind** | Luminosity | Snow |
|---|---|---|---|---|---|---|---|
| 1778086923 | 17.78° C | 70% | 1010 hPa | 0 mm | - | - | - |
| 1778086324 | 17.78° C | 70% | 1010.1 hPa | 0 mm | - | - | - |
| 1778083323 | 17.22° C | 72% | 1011 hPa | 0 mm | - | - | - |
| 1778080954 | 18.33° C | 68% | 1011.2 hPa | 0 mm | - | - | - |
| 1778079124 | 17.78° C | 71% | 1011.5 hPa | 0 mm | - | - | - |
| 1778074324 | 17.22° C | 72% | 1011.4 hPa | 0 mm | - | - | - |
| 1778072524 | 16.11° C | 77% | 1011.7 hPa | 0 mm | - | - | - |
| 1778071924 | 16.11° C | 78% | 1011.7 hPa | 0 mm | - | - | - |
| 1778070755 | 16.11° C | 79% | 1011.6 hPa | 0 mm | - | - | - |
| 1778070154 | 15.56° C | 79% | 1011.6 hPa | 0 mm | - | - | - |
| 1778070123 | 15.56° C | 80% | 1011.7 hPa | 0 mm | - | - | - |
| 1778065924 | 14.44° C | 86% | 1012.2 hPa | 0 mm | - | - | - |
| 1778064154 | 14.44° C | 86% | 1011.9 hPa | 0 mm | - | - | - |
| 1778063523 | 14.44° C | 87% | 1011.8 hPa | 0 mm | - | - | - |
| 1778062923 | 13.89° C | 87% | 1011.8 hPa | 0 mm | - | - | - |
| 1778062323 | 14.44° C | 87% | 1011.7 hPa | 0 mm | - | - | - |
| 1778060523 | 14.44° C | 88% | 1011.7 hPa | 0 mm | - | - | - |
| 1778058724 | 13.89° C | 88% | 1011.7 hPa | 0 mm | - | - | - |
| 1778057523 | 13.89° C | 88% | 1011.9 hPa | 0 mm | - | - | - |
| 1778056324 | 14.44° C | 87% | 1012.1 hPa | 0 mm | - | - | - |
| 1778054524 | 14.44° C | 87% | 1012.2 hPa | 0 mm | - | - | - |
| 1778053923 | 14.44° C | 86% | 1012.2 hPa | 0 mm | - | - | - |
| 1778052724 | 14.44° C | 86% | 1012.1 hPa | 0 mm | - | - | - |
| 1778052124 | 15° C | 85% | 1012 hPa | 0 mm | - | - | - |
| 1778050323 | 14.44° C | 85% | 1011.9 hPa | 0 mm | - | - | - |
* Rain latest hour (hover to see other rain measurements)
** Current wind speed in m/s (hover to see current wind gust speed)